createdAt,value
2022-09-22T00:01:47.281Z,79.23
2022-09-22T00:04:15.917Z,80.40
2022-09-22T00:06:47.802Z,82.50
2022-09-22T00:09:19.912Z,83.90
2022-09-22T00:11:55.884Z,85.37
2022-09-22T00:14:25.982Z,84.20
2022-09-22T00:16:56.402Z,85.73
2022-09-22T00:19:36.254Z,88.70
2022-09-22T00:22:07.967Z,87.20
2022-09-22T00:24:36.346Z,88.90
2022-09-22T00:27:10.745Z,90.53
2022-09-22T00:29:39.158Z,89.43
2022-09-22T00:32:09.566Z,89.03
2022-09-22T00:34:43.002Z,90.03
2022-09-22T00:37:14.727Z,90.00
2022-09-22T00:39:43.255Z,92.43
2022-09-22T00:42:12.550Z,91.40
2022-09-22T00:44:42.815Z,91.50
2022-09-22T00:47:29.940Z,92.20
2022-09-22T00:50:13.109Z,91.07
2022-09-22T00:52:47.482Z,92.10
2022-09-22T00:55:22.962Z,94.80
2022-09-22T00:58:01.499Z,94.27
2022-09-22T01:00:39.019Z,94.17
2022-09-22T01:03:29.737Z,95.60
2022-09-22T01:06:05.722Z,94.17
2022-09-22T01:08:37.734Z,93.07
2022-09-22T01:11:10.301Z,94.13
2022-09-22T01:13:56.688Z,94.17
2022-09-22T01:16:49.249Z,94.73
2022-09-22T01:19:43.767Z,96.13
2022-09-22T01:22:38.987Z,96.00
2022-09-22T01:25:35.332Z,97.57
2022-09-22T01:28:43.795Z,104.33
2022-09-22T01:31:19.726Z,99.50
2022-09-22T01:34:04.533Z,99.80
2022-09-22T01:36:40.799Z,98.57
2022-09-22T01:39:27.620Z,100.60
2022-09-22T01:42:02.576Z,100.13
2022-09-22T01:44:57.352Z,100.67
2022-09-22T01:47:34.667Z,101.97
2022-09-22T01:50:20.960Z,101.87
2022-09-22T01:52:50.085Z,101.83
2022-09-22T01:55:27.929Z,102.80
2022-09-22T01:58:09.627Z,102.80
2022-09-22T02:00:50.672Z,104.43
2022-09-22T02:03:36.476Z,104.67
2022-09-22T02:06:13.992Z,101.87
2022-09-22T02:08:49.014Z,104.63
2022-09-22T02:11:19.251Z,103.07
2022-09-22T02:13:48.497Z,103.20
2022-09-22T02:16:21.702Z,101.97
2022-09-22T02:19:16.967Z,103.93
2022-09-22T02:22:02.723Z,102.27
2022-09-22T02:24:42.153Z,102.63
2022-09-22T02:27:25.769Z,103.77
2022-09-22T02:29:59.729Z,104.90
2022-09-22T02:32:51.367Z,101.70
2022-09-22T02:35:40.052Z,102.40
2022-09-22T02:38:17.810Z,106.50
2022-09-22T02:41:10.684Z,105.30
2022-09-22T02:43:48.919Z,106.73
2022-09-22T02:46:28.481Z,106.70
2022-09-22T02:49:05.125Z,106.00
2022-09-22T02:51:38.415Z,106.17
2022-09-22T02:54:07.345Z,106.13
2022-09-22T02:56:45.720Z,108.00
2022-09-22T02:59:16.131Z,109.10
2022-09-22T03:01:44.569Z,109.83
2022-09-22T03:04:16.936Z,108.80
2022-09-22T03:06:54.554Z,108.83
2022-09-22T03:09:38.227Z,107.80
2022-09-22T03:12:09.002Z,108.77
2022-09-22T03:14:38.364Z,111.43
2022-09-22T03:17:08.856Z,111.07
2022-09-22T03:19:38.285Z,111.23
2022-09-22T03:22:08.089Z,112.33
2022-09-22T03:24:38.612Z,112.17
2022-09-22T03:27:07.180Z,113.77
2022-09-22T03:29:57.216Z,113.03
2022-09-22T03:32:40.031Z,112.93
2022-09-22T03:35:09.621Z,111.83
2022-09-22T03:37:46.280Z,109.73
2022-09-22T03:40:17.876Z,109.20
2022-09-22T03:42:46.219Z,109.97
2022-09-22T03:45:16.191Z,108.60
2022-09-22T03:47:50.004Z,110.70
2022-09-22T03:50:20.431Z,109.90
2022-09-22T03:52:52.249Z,112.87
2022-09-22T03:55:28.075Z,109.83
2022-09-22T03:58:03.913Z,112.10
2022-09-22T04:00:32.359Z,112.20
2022-09-22T04:03:04.681Z,109.67
2022-09-22T04:05:33.097Z,111.57
2022-09-22T04:08:03.251Z,112.30
2022-09-22T04:10:31.686Z,113.33
2022-09-22T04:13:01.097Z,115.10
2022-09-22T04:15:31.636Z,113.73
2022-09-22T04:18:18.112Z,112.27
2022-09-22T04:20:52.188Z,113.33
2022-09-22T04:23:22.007Z,111.30
2022-09-22T04:25:56.211Z,110.67
2022-09-22T04:28:25.698Z,114.27
2022-09-22T04:30:54.228Z,111.60
2022-09-22T04:33:24.617Z,104.87
2022-09-22T04:35:58.877Z,107.13
2022-09-22T04:38:29.564Z,107.73
2022-09-22T04:40:59.198Z,110.90
2022-09-22T04:43:33.399Z,109.63
2022-09-22T04:46:03.247Z,104.87
2022-09-22T04:48:37.263Z,104.93
2022-09-22T04:51:11.814Z,105.77
2022-09-22T04:53:47.811Z,108.17
2022-09-22T04:56:17.763Z,107.00
2022-09-22T04:58:52.820Z,107.03
2022-09-22T05:01:28.551Z,107.03
2022-09-22T05:03:58.928Z,109.00
2022-09-22T05:06:29.516Z,107.70
2022-09-22T05:08:59.381Z,108.30
2022-09-22T05:11:27.710Z,104.67
2022-09-22T05:13:58.783Z,113.10
2022-09-22T05:16:39.398Z,110.90
2022-09-22T05:19:07.779Z,113.80
2022-09-22T05:21:44.252Z,115.17
2022-09-22T05:24:15.945Z,112.90
2022-09-22T05:26:44.185Z,112.67
2022-09-22T05:29:12.758Z,111.40
2022-09-22T05:31:42.144Z,112.37
2022-09-22T05:34:10.523Z,108.70
2022-09-22T05:36:39.812Z,108.90
2022-09-22T05:39:08.102Z,105.07
2022-09-22T05:41:37.833Z,109.45
2022-09-22T05:44:12.382Z,108.50
2022-09-22T05:46:49.637Z,107.57
2022-09-22T05:49:28.197Z,105.43
2022-09-22T05:51:57.486Z,104.73
2022-09-22T05:54:26.317Z,105.33
2022-09-22T05:57:01.852Z,104.53
2022-09-22T05:59:30.186Z,107.87
2022-09-22T06:02:02.543Z,105.67
2022-09-22T06:04:37.675Z,109.57
2022-09-22T06:07:11.875Z,109.37
2022-09-22T06:09:44.030Z,109.27
2022-09-22T06:12:16.002Z,109.13
2022-09-22T06:14:52.381Z,111.10
2022-09-22T06:17:22.638Z,114.40
2022-09-22T06:19:51.864Z,112.90
2022-09-22T06:22:20.319Z,115.83
2022-09-22T06:24:48.908Z,116.93
2022-09-22T06:27:18.644Z,115.57
2022-09-22T06:29:48.015Z,113.70
2022-09-22T06:32:16.264Z,112.73
2022-09-22T06:34:52.541Z,111.60
2022-09-22T06:37:24.973Z,112.53
2022-09-22T06:40:08.328Z,115.20
2022-09-22T06:43:11.799Z,115.43
2022-09-22T06:45:40.267Z,114.40
2022-09-22T06:48:15.582Z,113.37
2022-09-22T06:50:56.177Z,118.40
2022-09-22T06:53:46.612Z,115.30
2022-09-22T06:56:19.931Z,118.80
2022-09-22T06:59:12.596Z,119.70
2022-09-22T07:01:45.378Z,122.07
2022-09-22T07:04:20.191Z,120.60
2022-09-22T07:07:07.025Z,126.17
2022-09-22T07:09:35.367Z,121.20
2022-09-22T07:12:06.439Z,121.67
2022-09-22T07:14:36.238Z,122.50
2022-09-22T07:17:10.246Z,120.90
2022-09-22T07:19:39.775Z,123.40
2022-09-22T07:22:20.117Z,123.67
2022-09-22T07:24:50.494Z,118.10
2022-09-22T07:27:30.000Z,117.00
2022-09-22T07:30:07.118Z,117.27
2022-09-22T07:33:09.498Z,111.17
2022-09-22T07:35:48.997Z,99.97
2022-09-22T07:38:24.413Z,102.40
2022-09-22T07:40:55.771Z,100.23
2022-09-22T07:43:29.788Z,105.23
2022-09-22T07:46:00.031Z,96.90
2022-09-22T07:48:43.030Z,87.73
2022-09-22T07:51:42.457Z,80.83
2022-09-22T07:54:14.271Z,79.80
2022-09-22T07:56:50.168Z,76.40
2022-09-22T07:59:38.363Z,76.73
2022-09-22T08:02:11.575Z,79.20
2022-09-22T08:04:41.242Z,70.13
2022-09-22T08:07:09.557Z,68.77
2022-09-22T08:09:39.924Z,61.93
2022-09-22T08:12:51.160Z,59.17
2022-09-22T08:15:30.503Z,48.47
2022-09-22T08:18:19.935Z,40.37
2022-09-22T08:21:21.350Z,41.07
2022-09-22T08:23:53.146Z,36.67
2022-09-22T08:26:23.654Z,33.60
2022-09-22T08:28:59.394Z,30.07
2022-09-22T08:31:36.364Z,27.43
2022-09-22T08:34:20.348Z,24.70
2022-09-22T08:36:49.342Z,22.10
2022-09-22T08:39:24.714Z,22.10
2022-09-22T08:42:10.889Z,21.60
2022-09-22T08:44:49.372Z,20.63
2022-09-22T08:47:45.042Z,21.03
2022-09-22T08:50:43.154Z,20.90
2022-09-22T08:53:17.795Z,20.80
2022-09-22T08:55:51.264Z,21.10
2022-09-22T08:58:31.990Z,20.53
2022-09-22T09:01:14.987Z,21.57
2022-09-22T09:04:17.382Z,20.40
2022-09-22T09:06:54.171Z,20.37
2022-09-22T09:09:35.636Z,21.53
2022-09-22T09:12:39.471Z,20.17
2022-09-22T09:15:37.191Z,20.30
2022-09-22T09:18:16.484Z,20.50
2022-09-22T09:20:49.243Z,19.93
2022-09-22T09:25:22.018Z,20.60
2022-09-22T09:26:35.720Z,20.30
2022-09-22T09:29:16.151Z,19.87
2022-09-22T09:31:52.128Z,19.87
2022-09-22T09:34:30.015Z,20.07
2022-09-22T09:37:08.684Z,20.63
2022-09-22T09:40:03.415Z,20.23
2022-09-22T09:42:44.850Z,20.63
2022-09-22T09:45:15.841Z,20.13
2022-09-22T09:51:43.785Z,20.60
2022-09-22T09:54:21.965Z,20.57
2022-09-22T09:57:12.420Z,20.60
2022-09-22T10:00:33.151Z,20.63
2022-09-22T10:03:15.328Z,20.43
2022-09-22T10:06:01.238Z,21.03
2022-09-22T10:08:36.770Z,20.70
2022-09-22T10:11:08.041Z,20.80
2022-09-22T10:13:39.689Z,20.03
2022-09-22T10:16:23.927Z,20.20
2022-09-22T10:19:26.657Z,20.27
2022-09-22T10:22:30.376Z,20.93
2022-09-22T10:25:34.107Z,20.57
2022-09-22T10:28:14.148Z,20.40
2022-09-22T10:31:00.465Z,20.37
2022-09-22T10:33:56.666Z,20.40
2022-09-22T10:36:46.563Z,19.70
2022-09-22T10:39:20.491Z,20.27
2022-09-22T10:41:56.664Z,20.30
2022-09-22T10:44:39.337Z,20.37
2022-09-22T10:47:34.212Z,19.70
2022-09-22T10:50:31.861Z,19.57
2022-09-22T10:53:42.994Z,19.57
2022-09-22T10:56:20.525Z,19.73
2022-09-22T10:59:45.125Z,19.90
2022-09-22T11:02:47.570Z,19.70
2022-09-22T11:06:02.147Z,19.00
2022-09-22T11:09:13.519Z,19.00
2022-09-22T11:12:13.538Z,19.10
2022-09-22T11:15:07.892Z,19.10
2022-09-22T11:18:19.170Z,18.83
2022-09-22T11:20:49.524Z,18.87
2022-09-22T11:23:50.187Z,18.90
2022-09-22T11:26:52.597Z,19.10
2022-09-22T11:29:56.452Z,19.50
2022-09-22T11:32:54.367Z,19.30
2022-09-22T11:36:12.434Z,19.60
2022-09-22T11:39:10.487Z,19.20
2022-09-22T11:42:20.142Z,19.40
2022-09-22T11:45:03.825Z,19.23
2022-09-22T11:47:49.449Z,19.10
2022-09-22T11:50:50.971Z,19.33
2022-09-22T11:57:03.391Z,19.77
2022-09-22T11:59:54.876Z,20.07
2022-09-22T12:02:56.106Z,20.00
2022-09-22T12:05:56.298Z,19.50
2022-09-22T12:08:37.031Z,19.67
2022-09-22T12:11:19.500Z,18.80
2022-09-22T12:14:05.457Z,19.07
2022-09-22T12:16:41.996Z,19.07
2022-09-22T12:23:31.114Z,18.80
2022-09-22T12:26:04.138Z,19.20
2022-09-22T12:28:44.236Z,19.43
2022-09-22T12:31:15.575Z,18.70
2022-09-22T12:33:50.012Z,18.70
2022-09-22T12:36:31.222Z,18.70
2022-09-22T12:39:29.041Z,19.20
2022-09-22T12:42:02.658Z,18.60
2022-09-22T12:44:45.761Z,18.87
2022-09-22T12:47:22.707Z,19.07
2022-09-22T12:50:53.630Z,20.07
2022-09-22T12:53:29.149Z,19.27
2022-09-22T12:55:59.015Z,19.30
2022-09-22T12:58:42.968Z,19.73
2022-09-22T13:01:34.617Z,19.43
2022-09-22T13:04:40.035Z,19.37
2022-09-22T13:07:43.906Z,24.10
2022-09-22T13:10:57.473Z,19.10
2022-09-22T13:13:52.695Z,19.57
2022-09-22T13:17:03.280Z,19.07
2022-09-22T13:19:37.543Z,19.00
2022-09-22T13:22:22.271Z,19.20
2022-09-22T13:24:57.636Z,19.07
2022-09-22T13:27:37.928Z,19.87
2022-09-22T13:30:14.726Z,18.90
2022-09-22T13:33:28.766Z,18.70
2022-09-22T13:36:04.783Z,20.53
2022-09-22T13:38:36.163Z,18.60
2022-09-22T13:41:05.375Z,25.57
2022-09-22T13:43:38.048Z,19.73
2022-09-22T13:46:26.226Z,18.50
2022-09-22T13:48:58.963Z,18.70
2022-09-22T13:51:27.908Z,19.20
2022-09-22T13:53:58.884Z,19.63
2022-09-22T13:56:29.868Z,19.90
2022-09-22T13:59:08.425Z,19.73
2022-09-22T14:01:51.482Z,19.80
2022-09-22T14:04:25.580Z,19.60
2022-09-22T14:07:00.489Z,19.00
2022-09-22T14:09:41.016Z,18.77
2022-09-22T14:12:12.185Z,18.60
2022-09-22T14:14:47.201Z,19.00
2022-09-22T14:17:36.990Z,19.20
2022-09-22T14:20:10.830Z,18.70
2022-09-22T14:22:54.152Z,19.00
2022-09-22T14:25:37.348Z,18.87
2022-09-22T14:28:17.000Z,19.30
2022-09-22T14:31:26.071Z,18.80
2022-09-22T14:34:01.344Z,19.23
2022-09-22T14:36:31.235Z,18.73
2022-09-22T14:39:10.163Z,18.70
2022-09-22T14:41:59.700Z,18.57
2022-09-22T14:44:44.503Z,19.40
2022-09-22T14:47:28.183Z,19.40
2022-09-22T14:50:17.486Z,19.70
2022-09-22T14:52:54.620Z,19.00
2022-09-22T14:55:36.043Z,19.20
2022-09-22T14:58:18.982Z,19.23
2022-09-22T15:01:38.181Z,19.20
2022-09-22T15:04:18.048Z,20.03
2022-09-22T15:06:57.793Z,19.30
2022-09-22T15:09:55.800Z,19.53
2022-09-22T15:12:51.056Z,19.13
2022-09-22T15:15:33.840Z,18.93
2022-09-22T15:18:16.114Z,18.67
2022-09-22T15:20:47.758Z,18.47
2022-09-22T15:23:31.692Z,18.70
2022-09-22T15:26:06.837Z,19.10
2022-09-22T15:28:37.930Z,19.10
2022-09-22T15:31:07.455Z,18.80
2022-09-22T15:33:35.954Z,19.10
2022-09-22T15:36:12.871Z,18.70
2022-09-22T15:38:45.111Z,19.30
2022-09-22T15:41:27.150Z,19.20
2022-09-22T15:44:03.202Z,18.80
2022-09-22T15:46:39.565Z,18.33
2022-09-22T15:49:12.665Z,19.00
2022-09-22T15:52:04.544Z,18.47
2022-09-22T15:54:47.829Z,18.40
2022-09-22T15:57:19.161Z,18.50
2022-09-22T15:59:54.600Z,18.63
2022-09-22T16:02:32.299Z,19.00
2022-09-22T16:05:00.848Z,18.57
2022-09-22T16:07:49.717Z,18.60
2022-09-22T16:10:24.795Z,18.50
2022-09-22T16:12:58.330Z,18.77
2022-09-22T16:15:37.019Z,18.60
2022-09-22T16:18:13.784Z,18.90
2022-09-22T16:20:44.582Z,19.20
2022-09-22T16:23:13.227Z,18.77
2022-09-22T16:25:57.291Z,19.03
2022-09-22T16:28:35.316Z,18.00
2022-09-22T16:31:13.761Z,19.37
2022-09-22T16:33:46.448Z,19.00
2022-09-22T16:36:14.975Z,19.10
2022-09-22T16:38:47.425Z,18.10
2022-09-22T16:41:44.707Z,18.57
2022-09-22T16:44:27.982Z,18.13
2022-09-22T16:46:56.709Z,18.63
2022-09-22T16:50:18.356Z,18.03
2022-09-22T16:52:53.792Z,18.80
2022-09-22T16:55:23.440Z,17.40
2022-09-22T16:58:14.937Z,17.13
2022-09-22T17:00:56.100Z,17.80
2022-09-22T17:03:26.155Z,17.07
2022-09-22T17:06:05.739Z,17.50
2022-09-22T17:08:38.249Z,17.20
2022-09-22T17:11:09.115Z,17.80
2022-09-22T17:13:57.013Z,17.20
2022-09-22T17:16:30.252Z,17.60
2022-09-22T17:19:02.468Z,17.70
2022-09-22T17:21:43.000Z,18.83
2022-09-22T17:24:16.905Z,18.20
2022-09-22T17:26:47.948Z,17.70
2022-09-22T17:29:25.412Z,18.47
2022-09-22T17:32:03.192Z,18.57
2022-09-22T17:34:38.742Z,17.90
2022-09-22T17:37:14.304Z,18.20
2022-09-22T17:40:04.962Z,18.50
2022-09-22T17:42:47.892Z,18.60
2022-09-22T17:45:43.094Z,18.80
2022-09-22T17:48:28.894Z,18.40
2022-09-22T17:51:49.113Z,18.80
2022-09-22T17:54:50.753Z,19.00
2022-09-22T17:57:34.075Z,19.70
2022-09-22T18:00:04.313Z,19.47
2022-09-22T18:02:36.836Z,19.10
2022-09-22T18:05:06.061Z,19.20
2022-09-22T18:08:04.213Z,19.73
2022-09-22T18:11:09.168Z,18.90
2022-09-22T18:13:40.476Z,19.27
2022-09-22T18:16:33.530Z,19.07
2022-09-22T18:19:37.951Z,19.83
2022-09-22T18:22:21.510Z,19.90
2022-09-22T18:24:57.172Z,20.47
2022-09-22T18:27:28.423Z,19.90
2022-09-22T18:30:15.978Z,20.20
2022-09-22T18:32:52.090Z,19.67
2022-09-22T18:36:01.772Z,19.30
2022-09-22T18:38:42.732Z,19.40
2022-09-22T18:41:29.202Z,19.10
2022-09-22T18:44:04.878Z,19.20
2022-09-22T18:46:42.519Z,19.40
2022-09-22T18:49:12.481Z,19.03
2022-09-22T18:51:43.827Z,20.43
2022-09-22T18:54:15.573Z,19.60
2022-09-22T18:56:47.742Z,20.83
2022-09-22T18:59:18.884Z,19.97
2022-09-22T19:01:55.611Z,19.10
2022-09-22T19:04:35.564Z,20.20
2022-09-22T19:07:21.975Z,20.43
2022-09-22T19:09:57.234Z,19.80
2022-09-22T19:12:43.865Z,20.30
2022-09-22T19:15:15.631Z,20.53
2022-09-22T19:17:52.019Z,21.73
2022-09-22T19:20:24.434Z,21.50
2022-09-22T19:22:56.305Z,22.77
2022-09-22T19:25:39.105Z,22.53
2022-09-22T19:28:08.236Z,22.07
2022-09-22T19:30:52.465Z,21.70
2022-09-22T19:33:25.332Z,21.30
2022-09-22T19:36:06.482Z,21.87
2022-09-22T19:38:35.979Z,21.50
2022-09-22T19:41:07.230Z,21.60
2022-09-22T19:44:03.559Z,21.40
2022-09-22T19:46:33.004Z,21.10
2022-09-22T19:49:09.575Z,22.33
2022-09-22T19:51:43.320Z,22.33
2022-09-22T19:54:31.203Z,21.33
2022-09-22T19:57:01.079Z,21.63
2022-09-22T20:00:01.286Z,21.40
2022-09-22T20:02:33.071Z,21.90
2022-09-22T20:05:24.257Z,21.87
2022-09-22T20:08:04.093Z,21.70
2022-09-22T20:10:38.379Z,23.10
2022-09-22T20:13:28.465Z,22.97
2022-09-22T20:15:59.369Z,23.20
2022-09-22T20:18:30.479Z,23.77
2022-09-22T20:21:05.116Z,24.00
2022-09-22T20:23:45.608Z,23.87
2022-09-22T20:26:15.274Z,24.60
2022-09-22T20:28:47.980Z,26.13
2022-09-22T20:31:24.660Z,23.90
2022-09-22T20:33:53.271Z,23.23
2022-09-22T20:36:30.974Z,23.77
2022-09-22T20:39:16.307Z,24.00
2022-09-22T20:41:45.428Z,24.37
2022-09-22T20:44:17.624Z,25.40
2022-09-22T20:46:52.180Z,24.50
2022-09-22T20:50:13.720Z,26.03
2022-09-22T20:52:45.868Z,24.20
2022-09-22T20:55:43.001Z,25.47
2022-09-22T20:58:21.718Z,27.40
2022-09-22T21:01:00.140Z,27.37
2022-09-22T21:03:57.866Z,26.63
2022-09-22T21:06:33.178Z,27.87
2022-09-22T21:09:22.260Z,28.60
2022-09-22T21:11:52.145Z,30.43
2022-09-22T21:14:46.149Z,31.70
2022-09-22T21:17:17.634Z,31.77
2022-09-22T21:19:47.609Z,30.27
2022-09-22T21:22:40.354Z,34.13
2022-09-22T21:25:18.087Z,34.80
2022-09-22T21:27:51.645Z,34.63
2022-09-22T21:30:26.492Z,33.67
2022-09-22T21:32:59.750Z,34.67
2022-09-22T21:36:01.454Z,32.60
2022-09-22T21:38:47.644Z,33.20
2022-09-22T21:41:24.866Z,34.43
2022-09-22T21:43:53.739Z,34.37
2022-09-22T21:46:51.039Z,32.77
2022-09-22T21:49:27.256Z,33.67
2022-09-22T21:52:50.263Z,31.20
2022-09-22T21:55:30.477Z,30.73
2022-09-22T21:58:16.099Z,30.90
2022-09-22T22:00:52.817Z,29.50
2022-09-22T22:03:46.953Z,28.43
2022-09-22T22:06:42.217Z,30.30
2022-09-22T22:09:28.181Z,28.20
2022-09-22T22:11:59.408Z,29.90
2022-09-22T22:14:39.775Z,28.30
2022-09-22T22:21:01.555Z,30.33
2022-09-22T22:23:52.476Z,29.50
2022-09-22T22:26:24.099Z,29.60
2022-09-22T22:29:18.605Z,29.90
2022-09-22T22:32:09.474Z,29.40
2022-09-22T22:34:38.610Z,30.33
2022-09-22T22:37:12.895Z,63.97
2022-09-22T22:39:52.748Z,32.47
2022-09-22T22:42:21.270Z,30.40
2022-09-22T22:44:50.809Z,30.07
2022-09-22T22:47:43.706Z,29.47
2022-09-22T22:50:13.150Z,31.17
2022-09-22T22:52:48.497Z,31.20
2022-09-22T22:55:32.535Z,29.73
2022-09-22T22:58:02.372Z,29.93
2022-09-22T23:00:33.741Z,31.10
2022-09-22T23:03:06.641Z,31.40
2022-09-22T23:05:40.849Z,32.03
2022-09-22T23:08:20.342Z,32.10
2022-09-22T23:11:04.752Z,33.40
2022-09-22T23:14:03.436Z,32.20
2022-09-22T23:16:36.450Z,33.10
2022-09-22T23:19:12.734Z,32.90
2022-09-22T23:21:55.538Z,32.37
2022-09-22T23:24:40.179Z,32.80
2022-09-22T23:27:49.600Z,32.80
2022-09-22T23:34:02.995Z,33.17
2022-09-22T23:36:45.498Z,34.80
2022-09-22T23:39:13.954Z,36.40
2022-09-22T23:42:10.294Z,36.07
2022-09-22T23:45:01.836Z,36.33
2022-09-22T23:47:54.895Z,38.70
2022-09-22T23:50:55.609Z,37.73
2022-09-22T23:53:48.133Z,37.83
2022-09-22T23:56:30.682Z,37.60
2022-09-22T23:59:02.336Z,36.93
